sensor_id;sensor_type;location;lat;lon;timestamp;P1;P2;P0
49462;PMS5003;35357;51.722;0.500;2023-07-29T00:01:59;4;4;
49462;PMS5003;35357;51.722;0.500;2023-07-29T00:04:26;3;3;
49462;PMS5003;35357;51.722;0.500;2023-07-29T00:06:53;3;2;
49462;PMS5003;35357;51.722;0.500;2023-07-29T00:09:21;3;3;
49462;PMS5003;35357;51.722;0.500;2023-07-29T00:11:47;4;3;
49462;PMS5003;35357;51.722;0.500;2023-07-29T00:14:15;3;3;
49462;PMS5003;35357;51.722;0.500;2023-07-29T00:16:42;3;3;
49462;PMS5003;35357;51.722;0.500;2023-07-29T00:19:09;3;3;
49462;PMS5003;35357;51.722;0.500;2023-07-29T00:21:36;4;4;
49462;PMS5003;35357;51.722;0.500;2023-07-29T00:24:03;3;3;
49462;PMS5003;35357;51.722;0.500;2023-07-29T00:26:29;3;3;
49462;PMS5003;35357;51.722;0.500;2023-07-29T00:28:56;2;2;
49462;PMS5003;35357;51.722;0.500;2023-07-29T00:31:24;3;3;
49462;PMS5003;35357;51.722;0.500;2023-07-29T00:33:51;3;3;
49462;PMS5003;35357;51.722;0.500;2023-07-29T00:36:18;5;5;
49462;PMS5003;35357;51.722;0.500;2023-07-29T00:38:45;4;4;
49462;PMS5003;35357;51.722;0.500;2023-07-29T00:41:12;1;1;
49462;PMS5003;35357;51.722;0.500;2023-07-29T00:43:40;3;3;
49462;PMS5003;35357;51.722;0.500;2023-07-29T00:46:08;4;4;
49462;PMS5003;35357;51.722;0.500;2023-07-29T00:48:36;3;3;
49462;PMS5003;35357;51.722;0.500;2023-07-29T00:51:03;4;4;
49462;PMS5003;35357;51.722;0.500;2023-07-29T00:53:30;4;4;
49462;PMS5003;35357;51.722;0.500;2023-07-29T00:55:57;3;2;
49462;PMS5003;35357;51.722;0.500;2023-07-29T00:58:24;4;4;
49462;PMS5003;35357;51.722;0.500;2023-07-29T01:00:52;2;2;
49462;PMS5003;35357;51.722;0.500;2023-07-29T01:03:21;3;3;
49462;PMS5003;35357;51.722;0.500;2023-07-29T01:05:50;4;4;
49462;PMS5003;35357;51.722;0.500;2023-07-29T01:08:28;5;4;
49462;PMS5003;35357;51.722;0.500;2023-07-29T01:11:06;4;4;
49462;PMS5003;35357;51.722;0.500;2023-07-29T01:13:48;4;3;
49462;PMS5003;35357;51.722;0.500;2023-07-29T01:16:19;2;2;
49462;PMS5003;35357;51.722;0.500;2023-07-29T01:18:52;2;2;
49462;PMS5003;35357;51.722;0.500;2023-07-29T01:21:21;7;5;
49462;PMS5003;35357;51.722;0.500;2023-07-29T01:23:52;4;4;
49462;PMS5003;35357;51.722;0.500;2023-07-29T01:26:19;3;3;
49462;PMS5003;35357;51.722;0.500;2023-07-29T01:28:46;4;4;
49462;PMS5003;35357;51.722;0.500;2023-07-29T01:31:13;4;4;
49462;PMS5003;35357;51.722;0.500;2023-07-29T01:33:48;3;3;
49462;PMS5003;35357;51.722;0.500;2023-07-29T01:36:22;5;3;
49462;PMS5003;35357;51.722;0.500;2023-07-29T01:38:53;4;4;
49462;PMS5003;35357;51.722;0.500;2023-07-29T01:41:22;4;4;
49462;PMS5003;35357;51.722;0.500;2023-07-29T01:43:50;4;4;
49462;PMS5003;35357;51.722;0.500;2023-07-29T01:46:19;4;4;
49462;PMS5003;35357;51.722;0.500;2023-07-29T01:48:46;5;5;
49462;PMS5003;35357;51.722;0.500;2023-07-29T01:51:13;4;4;
49462;PMS5003;35357;51.722;0.500;2023-07-29T01:53:40;3;3;
49462;PMS5003;35357;51.722;0.500;2023-07-29T01:56:07;4;4;
49462;PMS5003;35357;51.722;0.500;2023-07-29T01:58:35;3;3;
49462;PMS5003;35357;51.722;0.500;2023-07-29T02:01:02;4;4;
49462;PMS5003;35357;51.722;0.500;2023-07-29T02:03:29;4;4;
49462;PMS5003;35357;51.722;0.500;2023-07-29T02:05:56;4;4;
49462;PMS5003;35357;51.722;0.500;2023-07-29T02:08:23;3;3;
49462;PMS5003;35357;51.722;0.500;2023-07-29T02:10:50;4;4;
49462;PMS5003;35357;51.722;0.500;2023-07-29T02:13:18;2;2;
49462;PMS5003;35357;51.722;0.500;2023-07-29T02:15:45;5;5;
49462;PMS5003;35357;51.722;0.500;2023-07-29T02:18:12;5;4;
49462;PMS5003;35357;51.722;0.500;2023-07-29T02:20:39;3;3;
49462;PMS5003;35357;51.722;0.500;2023-07-29T02:23:06;4;4;
49462;PMS5003;35357;51.722;0.500;2023-07-29T02:25:34;3;3;
49462;PMS5003;35357;51.722;0.500;2023-07-29T02:28:02;6;4;
49462;PMS5003;35357;51.722;0.500;2023-07-29T02:30:29;3;3;
49462;PMS5003;35357;51.722;0.500;2023-07-29T02:32:56;2;2;
49462;PMS5003;35357;51.722;0.500;2023-07-29T02:35:23;3;3;
49462;PMS5003;35357;51.722;0.500;2023-07-29T02:37:49;3;3;
49462;PMS5003;35357;51.722;0.500;2023-07-29T02:40:17;3;3;
49462;PMS5003;35357;51.722;0.500;2023-07-29T02:42:44;4;4;
49462;PMS5003;35357;51.722;0.500;2023-07-29T02:45:11;2;2;
49462;PMS5003;35357;51.722;0.500;2023-07-29T02:47:38;3;3;
49462;PMS5003;35357;51.722;0.500;2023-07-29T02:50:05;3;3;
49462;PMS5003;35357;51.722;0.500;2023-07-29T02:52:32;3;3;
49462;PMS5003;35357;51.722;0.500;2023-07-29T02:54:59;2;2;
49462;PMS5003;35357;51.722;0.500;2023-07-29T02:57:26;3;3;
49462;PMS5003;35357;51.722;0.500;2023-07-29T02:59:53;3;3;
49462;PMS5003;35357;51.722;0.500;2023-07-29T03:02:20;2;2;
49462;PMS5003;35357;51.722;0.500;2023-07-29T03:04:48;2;2;
49462;PMS5003;35357;51.722;0.500;2023-07-29T03:07:16;1;1;
49462;PMS5003;35357;51.722;0.500;2023-07-29T03:09:44;3;3;
49462;PMS5003;35357;51.722;0.500;2023-07-29T03:12:11;4;3;
49462;PMS5003;35357;51.722;0.500;2023-07-29T03:14:38;3;3;
49462;PMS5003;35357;51.722;0.500;2023-07-29T03:17:05;3;3;
49462;PMS5003;35357;51.722;0.500;2023-07-29T03:19:32;4;3;
49462;PMS5003;35357;51.722;0.500;2023-07-29T03:21:59;3;3;
49462;PMS5003;35357;51.722;0.500;2023-07-29T03:24:27;4;4;
49462;PMS5003;35357;51.722;0.500;2023-07-29T03:26:54;3;3;
49462;PMS5003;35357;51.722;0.500;2023-07-29T03:29:20;3;3;
49462;PMS5003;35357;51.722;0.500;2023-07-29T03:31:47;3;3;
49462;PMS5003;35357;51.722;0.500;2023-07-29T03:34:14;5;3;
49462;PMS5003;35357;51.722;0.500;2023-07-29T03:36:40;3;3;
49462;PMS5003;35357;51.722;0.500;2023-07-29T03:39:07;7;6;
49462;PMS5003;35357;51.722;0.500;2023-07-29T03:41:34;3;2;
49462;PMS5003;35357;51.722;0.500;2023-07-29T03:44:02;3;3;
49462;PMS5003;35357;51.722;0.500;2023-07-29T03:46:28;5;5;
49462;PMS5003;35357;51.722;0.500;2023-07-29T03:48:55;5;3;
49462;PMS5003;35357;51.722;0.500;2023-07-29T03:51:22;4;4;
49462;PMS5003;35357;51.722;0.500;2023-07-29T03:53:48;4;4;
49462;PMS5003;35357;51.722;0.500;2023-07-29T03:56:16;5;5;
49462;PMS5003;35357;51.722;0.500;2023-07-29T03:58:45;5;5;
49462;PMS5003;35357;51.722;0.500;2023-07-29T04:01:12;5;5;
49462;PMS5003;35357;51.722;0.500;2023-07-29T04:03:39;6;6;
49462;PMS5003;35357;51.722;0.500;2023-07-29T04:06:06;4;4;
49462;PMS5003;35357;51.722;0.500;2023-07-29T04:08:33;7;6;
49462;PMS5003;35357;51.722;0.500;2023-07-29T04:11:01;5;5;
49462;PMS5003;35357;51.722;0.500;2023-07-29T04:13:27;4;4;
49462;PMS5003;35357;51.722;0.500;2023-07-29T04:15:54;5;5;
49462;PMS5003;35357;51.722;0.500;2023-07-29T04:18:21;5;4;
49462;PMS5003;35357;51.722;0.500;2023-07-29T04:20:47;4;4;
49462;PMS5003;35357;51.722;0.500;2023-07-29T04:23:14;5;5;
49462;PMS5003;35357;51.722;0.500;2023-07-29T04:25:42;7;7;
49462;PMS5003;35357;51.722;0.500;2023-07-29T04:28:09;4;4;
49462;PMS5003;35357;51.722;0.500;2023-07-29T04:30:35;5;4;
49462;PMS5003;35357;51.722;0.500;2023-07-29T04:33:02;5;4;
49462;PMS5003;35357;51.722;0.500;2023-07-29T04:35:30;5;5;
49462;PMS5003;35357;51.722;0.500;2023-07-29T04:37:56;5;5;
49462;PMS5003;35357;51.722;0.500;2023-07-29T04:40:23;4;4;
49462;PMS5003;35357;51.722;0.500;2023-07-29T04:42:50;4;4;
49462;PMS5003;35357;51.722;0.500;2023-07-29T04:45:18;3;3;
49462;PMS5003;35357;51.722;0.500;2023-07-29T04:47:45;5;5;
49462;PMS5003;35357;51.722;0.500;2023-07-29T04:50:13;4;4;
49462;PMS5003;35357;51.722;0.500;2023-07-29T04:52:40;4;4;
49462;PMS5003;35357;51.722;0.500;2023-07-29T04:55:08;6;5;
49462;PMS5003;35357;51.722;0.500;2023-07-29T04:57:35;4;4;
49462;PMS5003;35357;51.722;0.500;2023-07-29T05:00:03;5;5;
49462;PMS5003;35357;51.722;0.500;2023-07-29T05:02:31;7;6;
49462;PMS5003;35357;51.722;0.500;2023-07-29T05:04:58;3;3;
49462;PMS5003;35357;51.722;0.500;2023-07-29T05:07:25;3;3;
49462;PMS5003;35357;51.722;0.500;2023-07-29T05:09:51;4;4;
49462;PMS5003;35357;51.722;0.500;2023-07-29T05:12:18;3;3;
49462;PMS5003;35357;51.722;0.500;2023-07-29T05:14:46;4;4;
49462;PMS5003;35357;51.722;0.500;2023-07-29T05:17:13;5;5;
49462;PMS5003;35357;51.722;0.500;2023-07-29T05:19:40;5;5;
49462;PMS5003;35357;51.722;0.500;2023-07-29T05:22:07;3;3;
49462;PMS5003;35357;51.722;0.500;2023-07-29T05:24:34;4;3;
49462;PMS5003;35357;51.722;0.500;2023-07-29T05:27:01;4;4;
49462;PMS5003;35357;51.722;0.500;2023-07-29T05:29:28;4;4;
49462;PMS5003;35357;51.722;0.500;2023-07-29T05:31:55;5;5;
49462;PMS5003;35357;51.722;0.500;2023-07-29T05:34:22;4;4;
49462;PMS5003;35357;51.722;0.500;2023-07-29T05:36:49;6;6;
49462;PMS5003;35357;51.722;0.500;2023-07-29T05:39:16;4;4;
49462;PMS5003;35357;51.722;0.500;2023-07-29T05:41:43;4;4;
49462;PMS5003;35357;51.722;0.500;2023-07-29T05:44:11;4;3;
49462;PMS5003;35357;51.722;0.500;2023-07-29T05:46:38;4;4;
49462;PMS5003;35357;51.722;0.500;2023-07-29T05:49:05;3;3;
49462;PMS5003;35357;51.722;0.500;2023-07-29T05:51:32;6;6;
49462;PMS5003;35357;51.722;0.500;2023-07-29T05:53:58;5;5;
49462;PMS5003;35357;51.722;0.500;2023-07-29T05:56:26;6;6;
49462;PMS5003;35357;51.722;0.500;2023-07-29T05:58:53;6;6;
49462;PMS5003;35357;51.722;0.500;2023-07-29T06:01:20;6;6;
49462;PMS5003;35357;51.722;0.500;2023-07-29T06:03:47;6;6;
49462;PMS5003;35357;51.722;0.500;2023-07-29T06:06:14;8;8;
49462;PMS5003;35357;51.722;0.500;2023-07-29T06:08:41;7;6;
49462;PMS5003;35357;51.722;0.500;2023-07-29T06:11:08;7;7;
49462;PMS5003;35357;51.722;0.500;2023-07-29T06:13:35;7;7;
49462;PMS5003;35357;51.722;0.500;2023-07-29T06:16:01;10;8;
49462;PMS5003;35357;51.722;0.500;2023-07-29T06:18:29;7;7;
49462;PMS5003;35357;51.722;0.500;2023-07-29T06:20:56;9;8;
49462;PMS5003;35357;51.722;0.500;2023-07-29T06:23:24;8;8;
49462;PMS5003;35357;51.722;0.500;2023-07-29T06:25:51;8;8;
49462;PMS5003;35357;51.722;0.500;2023-07-29T06:28:18;9;9;
49462;PMS5003;35357;51.722;0.500;2023-07-29T06:30:46;8;8;
49462;PMS5003;35357;51.722;0.500;2023-07-29T06:33:12;9;8;
49462;PMS5003;35357;51.722;0.500;2023-07-29T06:35:39;8;8;
49462;PMS5003;35357;51.722;0.500;2023-07-29T06:38:08;7;7;
49462;PMS5003;35357;51.722;0.500;2023-07-29T06:40:35;8;8;
49462;PMS5003;35357;51.722;0.500;2023-07-29T06:43:03;5;5;
49462;PMS5003;35357;51.722;0.500;2023-07-29T06:45:29;9;9;
49462;PMS5003;35357;51.722;0.500;2023-07-29T06:47:56;7;6;
49462;PMS5003;35357;51.722;0.500;2023-07-29T06:50:23;5;5;
49462;PMS5003;35357;51.722;0.500;2023-07-29T06:52:49;5;5;
49462;PMS5003;35357;51.722;0.500;2023-07-29T06:55:17;6;6;
49462;PMS5003;35357;51.722;0.500;2023-07-29T06:57:45;10;9;
49462;PMS5003;35357;51.722;0.500;2023-07-29T07:00:12;6;6;
49462;PMS5003;35357;51.722;0.500;2023-07-29T07:02:40;6;6;
49462;PMS5003;35357;51.722;0.500;2023-07-29T07:05:07;7;6;
49462;PMS5003;35357;51.722;0.500;2023-07-29T07:07:35;6;6;
49462;PMS5003;35357;51.722;0.500;2023-07-29T07:10:02;6;6;
49462;PMS5003;35357;51.722;0.500;2023-07-29T07:12:30;6;6;
49462;PMS5003;35357;51.722;0.500;2023-07-29T07:14:56;7;7;
49462;PMS5003;35357;51.722;0.500;2023-07-29T07:17:23;7;6;
49462;PMS5003;35357;51.722;0.500;2023-07-29T07:19:50;7;7;
49462;PMS5003;35357;51.722;0.500;2023-07-29T07:22:18;6;6;
49462;PMS5003;35357;51.722;0.500;2023-07-29T07:24:45;6;6;
49462;PMS5003;35357;51.722;0.500;2023-07-29T07:27:12;8;7;
49462;PMS5003;35357;51.722;0.500;2023-07-29T07:29:39;5;5;
49462;PMS5003;35357;51.722;0.500;2023-07-29T07:32:06;6;6;
49462;PMS5003;35357;51.722;0.500;2023-07-29T07:34:34;6;6;
49462;PMS5003;35357;51.722;0.500;2023-07-29T07:37:01;7;7;
49462;PMS5003;35357;51.722;0.500;2023-07-29T07:39:29;7;7;
49462;PMS5003;35357;51.722;0.500;2023-07-29T07:41:56;8;7;
49462;PMS5003;35357;51.722;0.500;2023-07-29T07:44:23;4;4;
49462;PMS5003;35357;51.722;0.500;2023-07-29T07:46:51;6;6;
49462;PMS5003;35357;51.722;0.500;2023-07-29T07:49:18;5;5;
49462;PMS5003;35357;51.722;0.500;2023-07-29T07:51:46;5;5;
49462;PMS5003;35357;51.722;0.500;2023-07-29T07:54:13;5;5;
49462;PMS5003;35357;51.722;0.500;2023-07-29T07:56:40;4;4;
49462;PMS5003;35357;51.722;0.500;2023-07-29T07:59:07;5;5;
49462;PMS5003;35357;51.722;0.500;2023-07-29T08:01:34;4;4;
49462;PMS5003;35357;51.722;0.500;2023-07-29T08:04:02;4;4;
49462;PMS5003;35357;51.722;0.500;2023-07-29T08:06:29;3;3;
49462;PMS5003;35357;51.722;0.500;2023-07-29T08:08:57;4;4;
49462;PMS5003;35357;51.722;0.500;2023-07-29T08:11:25;6;5;
49462;PMS5003;35357;51.722;0.500;2023-07-29T08:13:52;4;4;
49462;PMS5003;35357;51.722;0.500;2023-07-29T08:16:19;4;3;
49462;PMS5003;35357;51.722;0.500;2023-07-29T08:18:46;4;3;
49462;PMS5003;35357;51.722;0.500;2023-07-29T08:21:12;4;4;
49462;PMS5003;35357;51.722;0.500;2023-07-29T08:23:39;4;4;
49462;PMS5003;35357;51.722;0.500;2023-07-29T08:26:06;2;2;
49462;PMS5003;35357;51.722;0.500;2023-07-29T08:28:34;3;3;
49462;PMS5003;35357;51.722;0.500;2023-07-29T08:31:03;3;3;
49462;PMS5003;35357;51.722;0.500;2023-07-29T08:33:31;4;4;
49462;PMS5003;35357;51.722;0.500;2023-07-29T08:35:59;2;2;
49462;PMS5003;35357;51.722;0.500;2023-07-29T08:38:26;2;2;
49462;PMS5003;35357;51.722;0.500;2023-07-29T08:40:55;3;3;
49462;PMS5003;35357;51.722;0.500;2023-07-29T08:43:28;4;4;
49462;PMS5003;35357;51.722;0.500;2023-07-29T08:45:58;2;2;
49462;PMS5003;35357;51.722;0.500;2023-07-29T08:48:29;3;3;
49462;PMS5003;35357;51.722;0.500;2023-07-29T08:50:59;2;2;
49462;PMS5003;35357;51.722;0.500;2023-07-29T08:53:27;3;3;
49462;PMS5003;35357;51.722;0.500;2023-07-29T08:55:55;3;3;
49462;PMS5003;35357;51.722;0.500;2023-07-29T08:58:22;1;1;
49462;PMS5003;35357;51.722;0.500;2023-07-29T09:00:51;4;4;
49462;PMS5003;35357;51.722;0.500;2023-07-29T09:03:19;3;3;
49462;PMS5003;35357;51.722;0.500;2023-07-29T09:05:46;2;2;
49462;PMS5003;35357;51.722;0.500;2023-07-29T09:08:14;4;3;
49462;PMS5003;35357;51.722;0.500;2023-07-29T09:10:42;2;2;
49462;PMS5003;35357;51.722;0.500;2023-07-29T09:13:10;2;2;
49462;PMS5003;35357;51.722;0.500;2023-07-29T09:15:37;1;1;
49462;PMS5003;35357;51.722;0.500;2023-07-29T09:18:08;2;2;
49462;PMS5003;35357;51.722;0.500;2023-07-29T09:20:37;2;2;
49462;PMS5003;35357;51.722;0.500;2023-07-29T09:23:06;2;2;
49462;PMS5003;35357;51.722;0.500;2023-07-29T09:25:35;2;2;
49462;PMS5003;35357;51.722;0.500;2023-07-29T09:28:07;3;3;
49462;PMS5003;35357;51.722;0.500;2023-07-29T09:30:35;4;3;
49462;PMS5003;35357;51.722;0.500;2023-07-29T09:33:03;2;2;
49462;PMS5003;35357;51.722;0.500;2023-07-29T09:35:30;4;2;
49462;PMS5003;35357;51.722;0.500;2023-07-29T09:38:00;1;1;
49462;PMS5003;35357;51.722;0.500;2023-07-29T09:40:27;1;1;
49462;PMS5003;35357;51.722;0.500;2023-07-29T09:43:00;2;2;
49462;PMS5003;35357;51.722;0.500;2023-07-29T09:45:28;4;3;
49462;PMS5003;35357;51.722;0.500;2023-07-29T09:47:56;2;2;
49462;PMS5003;35357;51.722;0.500;2023-07-29T09:50:24;1;1;
49462;PMS5003;35357;51.722;0.500;2023-07-29T09:52:52;1;1;
49462;PMS5003;35357;51.722;0.500;2023-07-29T09:55:21;3;3;
49462;PMS5003;35357;51.722;0.500;2023-07-29T09:57:53;0;0;
49462;PMS5003;35357;51.722;0.500;2023-07-29T10:00:22;1;1;
49462;PMS5003;35357;51.722;0.500;2023-07-29T10:02:50;2;2;
49462;PMS5003;35357;51.722;0.500;2023-07-29T10:05:19;1;1;
49462;PMS5003;35357;51.722;0.500;2023-07-29T10:07:48;2;2;
49462;PMS5003;35357;51.722;0.500;2023-07-29T10:10:17;0;0;
49462;PMS5003;35357;51.722;0.500;2023-07-29T10:12:46;3;3;
49462;PMS5003;35357;51.722;0.500;2023-07-29T10:15:13;1;1;
49462;PMS5003;35357;51.722;0.500;2023-07-29T10:17:40;2;2;
49462;PMS5003;35357;51.722;0.500;2023-07-29T10:20:08;3;3;
49462;PMS5003;35357;51.722;0.500;2023-07-29T10:22:38;2;2;
49462;PMS5003;35357;51.722;0.500;2023-07-29T10:25:08;2;2;
49462;PMS5003;35357;51.722;0.500;2023-07-29T10:27:42;2;2;
49462;PMS5003;35357;51.722;0.500;2023-07-29T10:30:13;3;2;
49462;PMS5003;35357;51.722;0.500;2023-07-29T10:32:42;5;4;
49462;PMS5003;35357;51.722;0.500;2023-07-29T10:35:09;3;3;
49462;PMS5003;35357;51.722;0.500;2023-07-29T10:37:37;4;4;
49462;PMS5003;35357;51.722;0.500;2023-07-29T10:40:06;4;3;
49462;PMS5003;35357;51.722;0.500;2023-07-29T10:42:36;3;3;
49462;PMS5003;35357;51.722;0.500;2023-07-29T10:45:19;3;3;
49462;PMS5003;35357;51.722;0.500;2023-07-29T10:47:47;4;4;
49462;PMS5003;35357;51.722;0.500;2023-07-29T10:50:17;4;4;
49462;PMS5003;35357;51.722;0.500;2023-07-29T10:52:48;4;4;
49462;PMS5003;35357;51.722;0.500;2023-07-29T10:55:33;1;1;
49462;PMS5003;35357;51.722;0.500;2023-07-29T10:58:06;3;2;
49462;PMS5003;35357;51.722;0.500;2023-07-29T11:00:34;2;2;
49462;PMS5003;35357;51.722;0.500;2023-07-29T11:03:02;4;3;
49462;PMS5003;35357;51.722;0.500;2023-07-29T11:05:48;4;4;
49462;PMS5003;35357;51.722;0.500;2023-07-29T11:08:18;3;3;
49462;PMS5003;35357;51.722;0.500;2023-07-29T11:11:06;4;3;
49462;PMS5003;35357;51.722;0.500;2023-07-29T11:13:35;4;4;
49462;PMS5003;35357;51.722;0.500;2023-07-29T11:16:03;3;3;
49462;PMS5003;35357;51.722;0.500;2023-07-29T11:18:31;4;4;
49462;PMS5003;35357;51.722;0.500;2023-07-29T11:21:00;3;3;
49462;PMS5003;35357;51.722;0.500;2023-07-29T11:23:29;5;5;
49462;PMS5003;35357;51.722;0.500;2023-07-29T11:25:57;4;4;
49462;PMS5003;35357;51.722;0.500;2023-07-29T11:28:25;5;4;
49462;PMS5003;35357;51.722;0.500;2023-07-29T11:30:53;4;4;
49462;PMS5003;35357;51.722;0.500;2023-07-29T11:33:22;5;3;
49462;PMS5003;35357;51.722;0.500;2023-07-29T11:35:51;3;3;
49462;PMS5003;35357;51.722;0.500;2023-07-29T11:38:19;3;3;
49462;PMS5003;35357;51.722;0.500;2023-07-29T11:40:55;3;3;
49462;PMS5003;35357;51.722;0.500;2023-07-29T11:43:23;3;3;
49462;PMS5003;35357;51.722;0.500;2023-07-29T11:45:51;3;3;
49462;PMS5003;35357;51.722;0.500;2023-07-29T11:48:25;4;3;
49462;PMS5003;35357;51.722;0.500;2023-07-29T11:50:53;3;3;
49462;PMS5003;35357;51.722;0.500;2023-07-29T11:53:21;4;4;
49462;PMS5003;35357;51.722;0.500;2023-07-29T11:55:49;4;3;
49462;PMS5003;35357;51.722;0.500;2023-07-29T11:58:18;4;3;
49462;PMS5003;35357;51.722;0.500;2023-07-29T12:00:46;3;3;
49462;PMS5003;35357;51.722;0.500;2023-07-29T12:03:14;3;3;
49462;PMS5003;35357;51.722;0.500;2023-07-29T12:05:43;2;2;
49462;PMS5003;35357;51.722;0.500;2023-07-29T12:08:11;4;4;
49462;PMS5003;35357;51.722;0.500;2023-07-29T12:10:38;4;4;
49462;PMS5003;35357;51.722;0.500;2023-07-29T12:13:07;5;5;
49462;PMS5003;35357;51.722;0.500;2023-07-29T12:15:37;3;3;
49462;PMS5003;35357;51.722;0.500;2023-07-29T12:18:04;4;4;
49462;PMS5003;35357;51.722;0.500;2023-07-29T12:20:32;5;5;
49462;PMS5003;35357;51.722;0.500;2023-07-29T12:22:59;3;3;
49462;PMS5003;35357;51.722;0.500;2023-07-29T12:25:27;3;3;
49462;PMS5003;35357;51.722;0.500;2023-07-29T12:27:55;2;2;
49462;PMS5003;35357;51.722;0.500;2023-07-29T12:30:28;2;2;
49462;PMS5003;35357;51.722;0.500;2023-07-29T12:32:55;3;2;
49462;PMS5003;35357;51.722;0.500;2023-07-29T12:35:21;4;3;
49462;PMS5003;35357;51.722;0.500;2023-07-29T12:37:57;3;3;
49462;PMS5003;35357;51.722;0.500;2023-07-29T12:40:25;6;6;
49462;PMS5003;35357;51.722;0.500;2023-07-29T12:42:53;4;4;
49462;PMS5003;35357;51.722;0.500;2023-07-29T12:45:20;5;4;
49462;PMS5003;35357;51.722;0.500;2023-07-29T12:47:48;3;3;
49462;PMS5003;35357;51.722;0.500;2023-07-29T12:50:16;2;2;
49462;PMS5003;35357;51.722;0.500;2023-07-29T12:52:43;3;3;
49462;PMS5003;35357;51.722;0.500;2023-07-29T12:55:10;3;3;
49462;PMS5003;35357;51.722;0.500;2023-07-29T12:57:36;2;2;
49462;PMS5003;35357;51.722;0.500;2023-07-29T13:00:04;3;3;
49462;PMS5003;35357;51.722;0.500;2023-07-29T13:02:32;2;2;
49462;PMS5003;35357;51.722;0.500;2023-07-29T13:05:00;3;3;
49462;PMS5003;35357;51.722;0.500;2023-07-29T13:07:27;3;3;
49462;PMS5003;35357;51.722;0.500;2023-07-29T13:09:55;2;2;
49462;PMS5003;35357;51.722;0.500;2023-07-29T13:12:21;4;4;
49462;PMS5003;35357;51.722;0.500;2023-07-29T13:14:49;2;1;
49462;PMS5003;35357;51.722;0.500;2023-07-29T13:17:16;4;4;
49462;PMS5003;35357;51.722;0.500;2023-07-29T13:19:42;2;2;
49462;PMS5003;35357;51.722;0.500;2023-07-29T13:22:09;3;3;
49462;PMS5003;35357;51.722;0.500;2023-07-29T13:24:36;3;2;
49462;PMS5003;35357;51.722;0.500;2023-07-29T13:27:04;3;2;
49462;PMS5003;35357;51.722;0.500;2023-07-29T13:29:31;3;3;
49462;PMS5003;35357;51.722;0.500;2023-07-29T13:31:58;2;2;
49462;PMS5003;35357;51.722;0.500;2023-07-29T13:34:24;2;2;
49462;PMS5003;35357;51.722;0.500;2023-07-29T13:36:52;2;2;
49462;PMS5003;35357;51.722;0.500;2023-07-29T13:39:19;3;3;
49462;PMS5003;35357;51.722;0.500;2023-07-29T13:41:46;1;1;
49462;PMS5003;35357;51.722;0.500;2023-07-29T13:44:13;1;1;
49462;PMS5003;35357;51.722;0.500;2023-07-29T13:46:40;6;6;
49462;PMS5003;35357;51.722;0.500;2023-07-29T13:49:08;2;2;
49462;PMS5003;35357;51.722;0.500;2023-07-29T13:51:35;1;1;
49462;PMS5003;35357;51.722;0.500;2023-07-29T13:54:02;3;3;
49462;PMS5003;35357;51.722;0.500;2023-07-29T13:56:29;2;2;
49462;PMS5003;35357;51.722;0.500;2023-07-29T13:58:57;4;4;
49462;PMS5003;35357;51.722;0.500;2023-07-29T14:01:23;3;3;
49462;PMS5003;35357;51.722;0.500;2023-07-29T14:03:50;1;1;
49462;PMS5003;35357;51.722;0.500;2023-07-29T14:06:18;1;1;
49462;PMS5003;35357;51.722;0.500;2023-07-29T14:08:45;1;1;
49462;PMS5003;35357;51.722;0.500;2023-07-29T14:11:12;3;3;
49462;PMS5003;35357;51.722;0.500;2023-07-29T14:13:40;4;2;
49462;PMS5003;35357;51.722;0.500;2023-07-29T14:16:07;1;1;
49462;PMS5003;35357;51.722;0.500;2023-07-29T14:18:35;2;2;
49462;PMS5003;35357;51.722;0.500;2023-07-29T14:21:01;2;2;
49462;PMS5003;35357;51.722;0.500;2023-07-29T14:23:29;1;1;
49462;PMS5003;35357;51.722;0.500;2023-07-29T14:25:56;2;2;
49462;PMS5003;35357;51.722;0.500;2023-07-29T14:28:22;2;2;
49462;PMS5003;35357;51.722;0.500;2023-07-29T14:30:50;1;1;
49462;PMS5003;35357;51.722;0.500;2023-07-29T14:33:18;2;2;
49462;PMS5003;35357;51.722;0.500;2023-07-29T14:35:45;2;2;
49462;PMS5003;35357;51.722;0.500;2023-07-29T14:38:13;2;2;
49462;PMS5003;35357;51.722;0.500;2023-07-29T14:40:40;2;1;
49462;PMS5003;35357;51.722;0.500;2023-07-29T14:43:08;2;2;
49462;PMS5003;35357;51.722;0.500;2023-07-29T14:45:34;2;2;
49462;PMS5003;35357;51.722;0.500;2023-07-29T14:48:01;2;2;
49462;PMS5003;35357;51.722;0.500;2023-07-29T14:50:29;2;2;
49462;PMS5003;35357;51.722;0.500;2023-07-29T14:52:55;1;1;
49462;PMS5003;35357;51.722;0.500;2023-07-29T14:55:22;1;1;
49462;PMS5003;35357;51.722;0.500;2023-07-29T14:57:49;1;1;
49462;PMS5003;35357;51.722;0.500;2023-07-29T15:00:16;2;2;
49462;PMS5003;35357;51.722;0.500;2023-07-29T15:02:43;2;2;
49462;PMS5003;35357;51.722;0.500;2023-07-29T15:05:11;2;2;
49462;PMS5003;35357;51.722;0.500;2023-07-29T15:07:37;0;0;
49462;PMS5003;35357;51.722;0.500;2023-07-29T15:10:04;2;2;
49462;PMS5003;35357;51.722;0.500;2023-07-29T15:12:32;0;0;
49462;PMS5003;35357;51.722;0.500;2023-07-29T15:14:59;3;3;
49462;PMS5003;35357;51.722;0.500;2023-07-29T15:17:26;2;2;
49462;PMS5003;35357;51.722;0.500;2023-07-29T15:19:53;2;2;
49462;PMS5003;35357;51.722;0.500;2023-07-29T15:22:19;2;2;
49462;PMS5003;35357;51.722;0.500;2023-07-29T15:24:46;2;2;
49462;PMS5003;35357;51.722;0.500;2023-07-29T15:27:13;1;1;
49462;PMS5003;35357;51.722;0.500;2023-07-29T15:29:39;2;2;
49462;PMS5003;35357;51.722;0.500;2023-07-29T15:32:06;4;3;
49462;PMS5003;35357;51.722;0.500;2023-07-29T15:34:34;3;2;
49462;PMS5003;35357;51.722;0.500;2023-07-29T15:37:01;1;1;
49462;PMS5003;35357;51.722;0.500;2023-07-29T15:39:29;2;2;
49462;PMS5003;35357;51.722;0.500;2023-07-29T15:41:56;2;2;
49462;PMS5003;35357;51.722;0.500;2023-07-29T15:44:24;3;2;
49462;PMS5003;35357;51.722;0.500;2023-07-29T15:46:52;1;1;
49462;PMS5003;35357;51.722;0.500;2023-07-29T15:49:19;1;1;
49462;PMS5003;35357;51.722;0.500;2023-07-29T15:51:46;2;2;
49462;PMS5003;35357;51.722;0.500;2023-07-29T15:54:14;1;1;
49462;PMS5003;35357;51.722;0.500;2023-07-29T15:56:41;1;1;
49462;PMS5003;35357;51.722;0.500;2023-07-29T15:59:08;3;3;
49462;PMS5003;35357;51.722;0.500;2023-07-29T16:01:36;1;1;
49462;PMS5003;35357;51.722;0.500;2023-07-29T16:04:02;3;3;
49462;PMS5003;35357;51.722;0.500;2023-07-29T16:06:30;6;6;
49462;PMS5003;35357;51.722;0.500;2023-07-29T16:08:57;3;3;
49462;PMS5003;35357;51.722;0.500;2023-07-29T16:11:24;2;2;
49462;PMS5003;35357;51.722;0.500;2023-07-29T16:13:53;3;3;
49462;PMS5003;35357;51.722;0.500;2023-07-29T16:16:20;2;2;
49462;PMS5003;35357;51.722;0.500;2023-07-29T16:18:47;3;3;
49462;PMS5003;35357;51.722;0.500;2023-07-29T16:21:14;2;2;
49462;PMS5003;35357;51.722;0.500;2023-07-29T16:23:42;4;4;
49462;PMS5003;35357;51.722;0.500;2023-07-29T16:26:09;3;2;
49462;PMS5003;35357;51.722;0.500;2023-07-29T16:28:35;2;2;
49462;PMS5003;35357;51.722;0.500;2023-07-29T16:31:02;4;4;
49462;PMS5003;35357;51.722;0.500;2023-07-29T16:33:30;3;2;
49462;PMS5003;35357;51.722;0.500;2023-07-29T16:35:57;4;4;
49462;PMS5003;35357;51.722;0.500;2023-07-29T16:38:24;4;4;
49462;PMS5003;35357;51.722;0.500;2023-07-29T16:40:52;2;1;
49462;PMS5003;35357;51.722;0.500;2023-07-29T16:43:19;4;4;
49462;PMS5003;35357;51.722;0.500;2023-07-29T16:45:46;6;6;
49462;PMS5003;35357;51.722;0.500;2023-07-29T16:48:13;6;6;
49462;PMS5003;35357;51.722;0.500;2023-07-29T16:50:40;8;8;
49462;PMS5003;35357;51.722;0.500;2023-07-29T16:53:07;4;4;
49462;PMS5003;35357;51.722;0.500;2023-07-29T16:55:34;3;3;